createdAt,value
2022-11-25T00:01:19.788Z,3.2
2022-11-25T00:05:27.753Z,12.1
2022-11-25T00:06:31.232Z,8
2022-11-25T00:08:35.245Z,1.9
2022-11-25T00:10:39.218Z,6.9
2022-11-25T00:12:43.223Z,2
2022-11-25T00:14:50.271Z,4.7
2022-11-25T00:16:54.268Z,10.5
2022-11-25T00:18:58.193Z,6
2022-11-25T00:21:02.205Z,1.4
2022-11-25T00:23:06.169Z,1.4
2022-11-25T00:25:10.176Z,7.5
2022-11-25T00:27:14.165Z,8
2022-11-25T00:29:21.178Z,2.9
2022-11-25T00:33:29.146Z,45.3
2022-11-25T00:35:33.140Z,9.1
2022-11-25T00:37:37.123Z,5.4
2022-11-25T00:39:41.140Z,2.3
2022-11-25T00:43:52.130Z,2.6
2022-11-25T00:45:56.280Z,39.7
2022-11-25T00:48:00.104Z,1
2022-11-25T00:50:04.109Z,17.5
2022-11-25T00:54:12.062Z,3
2022-11-25T01:00:27.000Z,4.3
2022-11-25T01:02:31.021Z,4.5
2022-11-25T01:05:38.468Z,23.7
2022-11-25T01:07:42.483Z,3.4
2022-11-25T01:09:46.425Z,21.5
2022-11-25T01:16:01.472Z,4.1
2022-11-25T01:20:09.353Z,5
2022-11-25T01:24:18.834Z,18
2022-11-25T01:26:25.794Z,10.7
2022-11-25T01:28:29.761Z,8.7
2022-11-25T01:32:37.720Z,10
2022-11-25T01:38:49.628Z,17.4
2022-11-25T01:40:56.624Z,14.5
2022-11-25T01:43:00.696Z,16.6
2022-11-25T01:45:04.569Z,18.3
2022-11-25T01:47:08.532Z,19.7
2022-11-25T01:49:12.500Z,20.7
2022-11-25T01:51:16.503Z,27.9
2022-11-25T01:53:20.465Z,29.4
2022-11-25T01:57:31.421Z,46.5
2022-11-25T02:01:59.997Z,42.1
2022-11-25T02:04:03.962Z,40.9
2022-11-25T02:06:07.948Z,37
2022-11-25T02:08:14.961Z,39.5
2022-11-25T02:10:18.894Z,43.1
2022-11-25T02:12:22.853Z,36.1
2022-11-25T02:14:26.845Z,36.7
2022-11-25T02:16:30.893Z,46
2022-11-25T02:18:34.838Z,44.9
2022-11-25T02:20:38.797Z,36.8
2022-11-25T02:22:45.760Z,38.6
2022-11-25T02:24:49.743Z,40.5
2022-11-25T02:26:53.720Z,41.5
2022-11-25T02:28:57.710Z,40.6
2022-11-25T02:31:01.691Z,45.5
2022-11-25T02:33:05.696Z,45.4
2022-11-25T02:35:09.621Z,48.7
2022-11-25T02:37:16.632Z,49.8
2022-11-25T02:39:20.602Z,46.4
2022-11-25T02:41:24.603Z,51.8
2022-11-25T02:43:28.564Z,52
2022-11-25T02:45:32.591Z,51.1
2022-11-25T02:47:36.653Z,54.4
2022-11-25T02:49:40.524Z,56.3
2022-11-25T02:51:47.495Z,61.4
2022-11-25T02:53:51.477Z,64.2
2022-11-25T02:56:58.940Z,67.1
2022-11-25T02:59:02.919Z,71
2022-11-25T03:01:06.979Z,78.7
2022-11-25T03:03:10.892Z,76.4
2022-11-25T03:05:17.915Z,86.5
2022-11-25T03:07:21.954Z,86.5
2022-11-25T03:09:25.860Z,85.6
2022-11-25T03:11:29.838Z,86.4
2022-11-25T03:15:37.805Z,94.8
2022-11-25T03:17:41.777Z,96.3
2022-11-25T03:19:48.769Z,110.5
2022-11-25T03:21:52.739Z,107.8
2022-11-25T03:23:56.734Z,109.5
2022-11-25T03:30:08.682Z,120.7
2022-11-25T03:34:19.637Z,135.7
2022-11-25T03:38:27.587Z,137.7
2022-11-25T03:40:31.566Z,142
2022-11-25T03:42:35.566Z,146.9
2022-11-25T03:44:39.548Z,151.4
2022-11-25T03:46:43.513Z,151.7
2022-11-25T03:48:50.483Z,170.5
2022-11-25T03:50:54.445Z,159.4
2022-11-25T03:54:02.041Z,183.3
2022-11-25T03:56:05.920Z,182.5
2022-11-25T03:58:09.893Z,184.8
2022-11-25T04:00:13.873Z,189.1
2022-11-25T04:02:20.910Z,195
2022-11-25T04:04:24.823Z,200.3
2022-11-25T04:06:28.807Z,205.6
2022-11-25T04:08:32.781Z,201.9
2022-11-25T04:10:36.771Z,209
2022-11-25T04:16:51.802Z,244.5
2022-11-25T04:18:55.687Z,240.8
2022-11-25T04:20:59.682Z,244.8
2022-11-25T04:23:03.656Z,252.9
2022-11-25T04:25:07.621Z,252
2022-11-25T04:27:11.586Z,261.5
2022-11-25T04:29:15.564Z,252.2
2022-11-25T04:33:26.551Z,281.3
2022-11-25T04:35:30.520Z,288.5
2022-11-25T04:39:38.490Z,298.6
2022-11-25T04:43:46.434Z,308.3
2022-11-25T04:46:14.150Z,321.8
2022-11-25T04:47:57.414Z,321.7
2022-11-25T04:50:01.383Z,303
2022-11-25T04:53:08.866Z,313.8
2022-11-25T04:55:12.872Z,317.3
2022-11-25T04:57:16.819Z,318.4
2022-11-25T04:59:23.816Z,331.1
2022-11-25T05:01:27.852Z,324.8
2022-11-25T05:03:31.765Z,320.3
2022-11-25T05:05:35.749Z,320.8
2022-11-25T05:07:39.860Z,320.9
2022-11-25T05:09:43.671Z,325.5
2022-11-25T05:11:47.679Z,328.3
2022-11-25T05:13:54.643Z,339.5
2022-11-25T05:20:06.578Z,335.1
2022-11-25T05:22:10.564Z,334.4
2022-11-25T05:26:18.513Z,332.4
2022-11-25T05:28:25.490Z,347.3
2022-11-25T05:30:29.541Z,339.8
2022-11-25T05:32:33.430Z,351.4
2022-11-25T05:34:37.895Z,346
2022-11-25T05:36:41.374Z,356.5
2022-11-25T05:38:45.364Z,345.2
2022-11-25T05:40:49.322Z,364.1
2022-11-25T05:42:56.309Z,367.2
2022-11-25T05:45:00.274Z,377.6
2022-11-25T05:47:04.257Z,371.2
2022-11-25T05:49:28.686Z,383.4
2022-11-25T05:51:32.708Z,377.5
2022-11-25T05:53:36.652Z,378.7
2022-11-25T05:55:43.618Z,395.8
2022-11-25T05:57:47.587Z,392.1
2022-11-25T05:59:51.563Z,409.8
2022-11-25T06:01:55.748Z,404.4
2022-11-25T06:08:07.485Z,389.5
2022-11-25T06:10:14.438Z,421.6
2022-11-25T06:12:18.428Z,431.1
2022-11-25T06:14:22.392Z,428
2022-11-25T06:22:38.294Z,426.3
2022-11-25T06:24:49.301Z,425.3
2022-11-25T06:26:49.270Z,414.7
2022-11-25T06:28:53.234Z,431.3
2022-11-25T06:30:57.288Z,424.2
2022-11-25T06:33:01.208Z,426.2
2022-11-25T06:35:05.175Z,420.9
2022-11-25T06:39:16.102Z,426.8
2022-11-25T06:41:20.103Z,428.8
2022-11-25T06:43:24.064Z,423.2
2022-11-25T06:44:27.544Z,421.7
2022-11-25T06:46:31.563Z,419.5
2022-11-25T06:48:35.508Z,419.3
2022-11-25T06:50:39.460Z,412.5
2022-11-25T06:52:46.433Z,426.6
2022-11-25T06:54:50.417Z,413.8
2022-11-25T06:56:54.386Z,427.5
2022-11-25T06:58:58.386Z,426.1
2022-11-25T07:03:06.419Z,426.9
2022-11-25T07:05:10.292Z,420.5
2022-11-25T07:07:17.298Z,425.9
2022-11-25T07:15:33.157Z,4.6
2022-11-25T07:17:37.107Z,15.3
2022-11-25T07:19:42.669Z,1.6
2022-11-25T07:21:49.593Z,7.7
2022-11-25T07:23:53.555Z,6.3
2022-11-25T07:25:57.556Z,26.5
2022-11-25T07:28:01.488Z,4.4
2022-11-25T07:34:13.376Z,1.8
2022-11-25T07:36:20.384Z,2
2022-11-25T07:38:24.336Z,5.2
2022-11-25T07:40:28.302Z,1.7
2022-11-25T07:41:31.783Z,26.2
2022-11-25T07:45:39.686Z,2.2
2022-11-25T07:47:43.686Z,11
2022-11-25T07:49:50.663Z,4.2
2022-11-25T07:53:58.555Z,5.8
2022-11-25T07:58:06.456Z,2.5
2022-11-25T08:00:10.444Z,2.6
2022-11-25T08:02:14.517Z,1.7
2022-11-25T08:18:52.106Z,1.8
2022-11-25T08:27:07.974Z,11.8
2022-11-25T08:29:11.954Z,3.7
2022-11-25T08:31:15.943Z,1.8
2022-11-25T08:33:22.864Z,21.9
2022-11-25T08:35:26.934Z,16.6
2022-11-25T08:37:30.811Z,10.4
2022-11-25T08:38:34.316Z,0.3
2022-11-25T08:40:38.429Z,3.1
2022-11-25T08:42:42.248Z,8.2
2022-11-25T08:44:46.195Z,13.6
2022-11-25T08:46:53.215Z,7
2022-11-25T08:48:57.164Z,2.2
2022-11-25T08:51:01.181Z,4
2022-11-25T08:53:05.146Z,17.2
2022-11-25T08:55:09.109Z,3.3
2022-11-25T08:57:13.065Z,4.4
2022-11-25T09:01:24.120Z,6.6
2022-11-25T09:05:32.818Z,2.1
2022-11-25T09:07:36.078Z,8.6
2022-11-25T09:09:40.337Z,16.1
2022-11-25T09:11:44.119Z,4.5
2022-11-25T09:13:48.023Z,11.4
2022-11-25T09:17:58.967Z,3.6
2022-11-25T09:20:02.958Z,13.6
2022-11-25T09:22:07.019Z,8
2022-11-25T09:24:10.958Z,2.2
2022-11-25T09:26:15.148Z,27.2
2022-11-25T09:28:18.944Z,3.2
2022-11-25T09:30:26.022Z,15.2
2022-11-25T09:32:30.176Z,11
2022-11-25T09:34:34.274Z,8.3
2022-11-25T09:39:02.409Z,6.4
2022-11-25T09:47:21.477Z,12.4
2022-11-25T09:49:25.510Z,8.3
2022-11-25T09:51:29.576Z,8.4
2022-11-25T09:53:33.540Z,13.3
2022-11-25T09:55:37.584Z,23.6
2022-11-25T09:57:44.609Z,1.6
2022-11-25T09:59:48.616Z,2.5
2022-11-25T10:01:52.709Z,6.8
2022-11-25T10:06:00.724Z,1.7
2022-11-25T10:08:04.728Z,0.8
2022-11-25T10:12:15.805Z,16.6
2022-11-25T10:14:19.813Z,0.8
2022-11-25T10:16:23.959Z,1.7
2022-11-25T10:20:31.912Z,3.6
2022-11-25T10:24:41.371Z,4.3
2022-11-25T10:26:47.025Z,9
2022-11-25T10:28:51.094Z,7.4
2022-11-25T10:30:55.161Z,7.9
2022-11-25T10:34:02.678Z,2.6
2022-11-25T10:36:06.758Z,5.3
2022-11-25T10:38:15.819Z,4.7
2022-11-25T10:40:17.917Z,11
2022-11-25T10:42:21.856Z,1.6
2022-11-25T10:44:25.904Z,0.5
2022-11-25T10:46:43.705Z,0.8
2022-11-25T10:48:34.001Z,0.7
2022-11-25T10:50:38.052Z,0.5
2022-11-25T10:52:42.081Z,4.1
2022-11-25T10:54:49.160Z,47.5
2022-11-25T10:56:53.183Z,5.3
2022-11-25T10:58:57.287Z,12.7
2022-11-25T11:01:01.298Z,0.7
2022-11-25T11:03:05.388Z,5.8
2022-11-25T11:05:09.394Z,2
2022-11-25T11:07:13.484Z,2.1
2022-11-25T11:09:20.539Z,5.4
2022-11-25T11:11:24.541Z,2
2022-11-25T11:13:28.591Z,7.8
2022-11-25T11:15:32.642Z,4.9
2022-11-25T11:17:37.400Z,3.4
2022-11-25T11:19:40.900Z,3.4
2022-11-25T11:21:44.777Z,12.5
2022-11-25T11:23:51.835Z,5.9
2022-11-25T11:25:55.887Z,7.7
2022-11-25T11:27:59.933Z,0.7
2022-11-25T11:31:07.523Z,3.4
2022-11-25T11:37:22.641Z,6.2
2022-11-25T11:39:26.690Z,10.4
2022-11-25T11:41:30.720Z,2.4
2022-11-25T11:43:34.812Z,16.2
2022-11-25T11:45:38.829Z,2.8
2022-11-25T11:47:42.879Z,8.1
2022-11-25T11:49:46.908Z,2.3
2022-11-25T11:51:53.977Z,2.3
2022-11-25T11:53:57.997Z,8.7
2022-11-25T11:56:33.687Z,2.2
2022-11-25T11:58:06.088Z,13.7
2022-11-25T12:00:10.156Z,2
2022-11-25T12:02:14.231Z,0.4
2022-11-25T12:08:29.360Z,8.4
2022-11-25T12:10:33.344Z,1.9
2022-11-25T12:12:37.421Z,4.2
2022-11-25T12:14:41.466Z,5.2
2022-11-25T12:16:45.612Z,6.6
2022-11-25T12:18:49.554Z,10.5
2022-11-25T12:20:56.602Z,5.4
2022-11-25T12:23:00.638Z,1.2
2022-11-25T12:25:04.713Z,4.2
2022-11-25T12:26:08.226Z,33.9
2022-11-25T12:28:12.297Z,34.7
2022-11-25T12:30:16.357Z,20.8
2022-11-25T12:32:20.385Z,3.2
2022-11-25T12:40:39.626Z,5.6
2022-11-25T12:42:43.654Z,4.1
2022-11-25T12:44:47.720Z,1.6
2022-11-25T12:46:51.760Z,6.3
2022-11-25T12:48:58.845Z,7.8
2022-11-25T12:51:02.895Z,3
2022-11-25T12:53:06.958Z,14
2022-11-25T12:57:15.111Z,7.4
2022-11-25T12:59:19.107Z,3.8
2022-11-25T13:07:38.395Z,15
2022-11-25T13:09:42.429Z,9.6
2022-11-25T13:11:46.789Z,10.9
2022-11-25T13:13:50.931Z,4.2
2022-11-25T13:18:03.345Z,7.3
2022-11-25T13:20:07.325Z,6.8
2022-11-25T13:22:11.347Z,5.9
2022-11-25T13:24:33.984Z,2.8
2022-11-25T13:26:37.834Z,5.4
2022-11-25T13:28:41.882Z,15.1
2022-11-25T13:30:48.926Z,0.5
2022-11-25T13:32:52.998Z,13.5
2022-11-25T13:34:57.048Z,0.8
2022-11-25T13:37:01.101Z,3
2022-11-25T13:43:18.715Z,18.5
2022-11-25T13:45:38.417Z,8.7
2022-11-25T13:47:24.452Z,4.4
2022-11-25T13:53:37.297Z,8.2
2022-11-25T13:55:41.361Z,6.7
2022-11-25T14:01:57.345Z,1.9
2022-11-25T14:04:01.400Z,1.6
2022-11-25T14:08:09.565Z,6.7
2022-11-25T14:10:13.594Z,5.3
2022-11-25T14:12:17.635Z,4.1
2022-11-25T14:14:24.713Z,9.3
2022-11-25T14:16:28.829Z,3.8
2022-11-25T14:19:03.626Z,9.4
2022-11-25T14:19:51.068Z,6.3
2022-11-25T14:21:40.437Z,9.8
2022-11-25T14:23:44.484Z,7.4
2022-11-25T14:25:48.543Z,3.2
2022-11-25T14:28:00.897Z,9.3
2022-11-25T14:29:59.685Z,9
2022-11-25T14:34:07.805Z,9.3
2022-11-25T14:38:15.945Z,30.8
2022-11-25T14:42:27.085Z,18.5
2022-11-25T14:48:39.231Z,5.4
2022-11-25T14:52:47.408Z,21.1
2022-11-25T14:56:58.474Z,2.3
2022-11-25T14:59:02.528Z,7
2022-11-25T15:01:06.566Z,24.1
2022-11-25T15:03:10.648Z,8.6
2022-11-25T15:05:14.703Z,9.3
2022-11-25T15:07:18.920Z,3.4
2022-11-25T15:09:22.805Z,18.5
2022-11-25T15:11:29.853Z,3.2
2022-11-25T15:13:33.923Z,10.8
2022-11-25T15:20:49.619Z,15
2022-11-25T15:22:53.681Z,11.7
2022-11-25T15:25:00.728Z,10.5
2022-11-25T15:27:04.781Z,3.6
2022-11-25T15:29:08.822Z,6.1
2022-11-25T15:31:12.950Z,3.8
2022-11-25T15:33:16.893Z,3.6
2022-11-25T15:35:20.945Z,4.9
2022-11-25T15:37:25.013Z,11.2
2022-11-25T15:39:32.080Z,11.7
2022-11-25T15:41:36.106Z,20.2
2022-11-25T15:43:40.122Z,25.1
2022-11-25T15:45:44.353Z,16.7
2022-11-25T15:47:48.243Z,5.1
2022-11-25T15:49:52.249Z,3.1
2022-11-25T15:51:56.279Z,4.3
2022-11-25T15:56:07.339Z,5.6
2022-11-25T15:58:11.386Z,5.4
2022-11-25T16:00:15.406Z,29.6
2022-11-25T16:02:19.503Z,2.4
2022-11-25T16:04:23.460Z,16.3
2022-11-25T16:06:27.490Z,3.6
2022-11-25T16:10:38.568Z,7
2022-11-25T16:12:42.602Z,8.6
2022-11-25T16:13:46.134Z,6.6
2022-11-25T16:15:50.145Z,15.9
2022-11-25T16:18:02.804Z,16.6
2022-11-25T16:19:58.228Z,20.3
2022-11-25T16:26:13.258Z,6.3
2022-11-25T16:28:17.290Z,6
2022-11-25T16:30:21.293Z,5.1
2022-11-25T16:32:25.308Z,20.6
2022-11-25T16:34:29.315Z,17.4
2022-11-25T16:36:36.355Z,6.8
2022-11-25T16:38:40.370Z,7.8
2022-11-25T16:40:44.374Z,12
2022-11-25T16:42:48.371Z,13.5
2022-11-25T16:46:56.381Z,9
2022-11-25T16:49:00.409Z,11.7
2022-11-25T16:51:07.418Z,13.3
2022-11-25T16:53:11.410Z,14.7
2022-11-25T16:55:15.411Z,12.7
2022-11-25T16:57:19.437Z,14.6
2022-11-25T17:01:27.498Z,19.3
2022-11-25T17:03:31.402Z,32.8
2022-11-25T17:05:38.598Z,30.6
2022-11-25T17:07:42.453Z,36
2022-11-25T17:09:46.371Z,39.2
2022-11-25T17:12:04.883Z,42.8
2022-11-25T17:14:08.957Z,45.5
2022-11-25T17:16:13.001Z,47.8
2022-11-25T17:18:19.804Z,58.3
2022-11-25T17:20:23.791Z,68.8
2022-11-25T17:22:27.780Z,66.1
2022-11-25T17:24:31.745Z,71.5
2022-11-25T17:26:35.729Z,74.8
2022-11-25T17:32:50.679Z,100.7
2022-11-25T17:34:54.652Z,107.8
2022-11-25T17:36:58.622Z,111.8
2022-11-25T17:39:02.630Z,116.1
2022-11-25T17:47:21.475Z,171.3
2022-11-25T17:51:29.397Z,191.6
2022-11-25T17:53:33.377Z,212.6
2022-11-25T17:55:37.303Z,222.9
2022-11-25T17:57:41.296Z,234.1
2022-11-25T17:59:45.237Z,253.1
2022-11-25T18:01:52.325Z,277.2
2022-11-25T18:03:56.186Z,284.4
2022-11-25T18:06:00.186Z,294.5
2022-11-25T18:07:03.636Z,291.6
2022-11-25T18:09:07.601Z,303.2
2022-11-25T18:11:11.588Z,314.6
2022-11-25T18:17:27.866Z,326.1
2022-11-25T18:19:30.422Z,332.4
2022-11-25T18:21:34.407Z,330.4
2022-11-25T18:23:38.381Z,331
2022-11-25T18:25:42.328Z,333.4
2022-11-25T18:27:46.286Z,336.9
2022-11-25T18:29:53.265Z,355.3
2022-11-25T18:31:57.240Z,357.1
2022-11-25T18:34:01.944Z,367.3
2022-11-25T18:36:05.916Z,363.5
2022-11-25T18:38:09.899Z,372.9
2022-11-25T18:40:13.828Z,376.1
2022-11-25T18:42:17.869Z,379.6
2022-11-25T18:44:26.175Z,391.9
2022-11-25T18:46:28.815Z,392.9
2022-11-25T18:50:36.665Z,398.2
2022-11-25T18:52:40.687Z,392.7
2022-11-25T18:54:44.576Z,389.4
2022-11-25T18:56:48.546Z,391.4
2022-11-25T18:58:55.497Z,396.2
2022-11-25T19:00:59.515Z,392.5
2022-11-25T19:03:03.572Z,389.3
2022-11-25T19:04:06.883Z,389.4
2022-11-25T19:06:10.832Z,396.4
2022-11-25T19:08:14.774Z,381.5
2022-11-25T19:10:18.735Z,389.8
2022-11-25T19:12:30.018Z,394.1
2022-11-25T19:14:31.180Z,395.1
2022-11-25T19:16:35.192Z,382.6
2022-11-25T19:18:44.832Z,385.7
2022-11-25T19:22:46.942Z,377.7
2022-11-25T19:24:50.888Z,386.6
2022-11-25T19:33:09.597Z,393.9
2022-11-25T19:35:13.535Z,391.4
2022-11-25T19:37:17.490Z,401.8
2022-11-25T19:41:28.322Z,405.9
2022-11-25T19:45:36.271Z,407.6
2022-11-25T19:47:40.148Z,409.6
2022-11-25T19:49:44.059Z,408.8
2022-11-25T19:51:47.939Z,421.1
2022-11-25T19:53:51.841Z,406.5
2022-11-25T19:55:58.783Z,426.8
2022-11-25T19:58:02.678Z,431.6
2022-11-25T20:00:06.629Z,432.9
2022-11-25T20:01:10.192Z,432.7
2022-11-25T20:03:13.999Z,437.5
2022-11-25T20:05:17.918Z,423
2022-11-25T20:15:40.544Z,415.8
2022-11-25T20:17:44.429Z,433.3
2022-11-25T20:19:48.341Z,432.1
2022-11-25T20:21:52.268Z,440.2
2022-11-25T20:23:59.190Z,431
2022-11-25T20:26:03.131Z,443.8
2022-11-25T20:28:07.026Z,437.8
2022-11-25T20:30:10.932Z,443.2
2022-11-25T20:32:14.926Z,425.6
2022-11-25T20:34:18.777Z,431.5
2022-11-25T20:36:22.676Z,422.1
2022-11-25T20:38:29.618Z,426.3
2022-11-25T20:40:33.518Z,438.2
2022-11-25T20:42:37.413Z,430.3
2022-11-25T20:44:41.350Z,432.4
2022-11-25T20:46:45.244Z,432.8
2022-11-25T20:48:49.438Z,433.8
2022-11-25T20:50:53.045Z,430.9
2022-11-25T20:52:59.947Z,451.4
2022-11-25T20:55:03.848Z,435.1
2022-11-25T20:57:07.766Z,435.6
2022-11-25T21:01:35.899Z,437.5
2022-11-25T21:07:50.610Z,428.5
2022-11-25T21:09:54.355Z,438.8
2022-11-25T21:14:02.126Z,437.2
2022-11-25T21:16:06.194Z,437.4
2022-11-25T21:18:09.925Z,437.4
2022-11-25T21:20:16.824Z,428.7
2022-11-25T21:22:20.719Z,435.7
2022-11-25T21:24:24.608Z,431
2022-11-25T21:26:28.497Z,434.1
2022-11-25T21:28:32.388Z,436.5
2022-11-25T21:30:36.291Z,425.1
2022-11-25T21:34:47.067Z,435.9
2022-11-25T21:36:50.957Z,426.2
2022-11-25T21:38:54.867Z,429.2
2022-11-25T21:40:58.754Z,419.4
2022-11-25T21:43:02.649Z,425.7
2022-11-25T21:45:06.504Z,429.3
2022-11-25T21:47:10.390Z,426.9
2022-11-25T21:49:17.275Z,429.9
2022-11-25T21:51:21.137Z,420.8
2022-11-25T21:53:25.024Z,404.5
2022-11-25T21:54:28.480Z,415.8
2022-11-25T21:56:32.452Z,418.2
2022-11-25T21:58:36.312Z,429.4
2022-11-25T22:00:40.263Z,436.9
2022-11-25T22:02:47.161Z,443.3
2022-11-25T22:04:50.979Z,436
2022-11-25T22:06:54.869Z,440.4
2022-11-25T22:08:58.750Z,432.6
2022-11-25T22:11:02.641Z,443.8
2022-11-25T22:13:06.499Z,445.5
2022-11-25T22:15:10.398Z,447.1
2022-11-25T22:17:17.316Z,451.1
2022-11-25T22:19:21.228Z,455.4
2022-11-25T22:21:25.094Z,451.6
2022-11-25T22:23:28.997Z,454.7
2022-11-25T22:25:32.861Z,439.6
2022-11-25T22:27:36.776Z,446.5
2022-11-25T22:29:40.679Z,445.2
2022-11-25T22:31:47.684Z,450
2022-11-25T22:33:51.478Z,457.4
2022-11-25T22:35:55.390Z,440.2
2022-11-25T22:37:59.310Z,462.5
2022-11-25T22:40:03.101Z,465.5
2022-11-25T22:42:06.982Z,460
2022-11-25T22:48:21.712Z,466.2
2022-11-25T22:50:25.630Z,468.7
2022-11-25T22:53:32.984Z,471.2
2022-11-25T22:55:36.884Z,462.3
2022-11-25T22:57:40.782Z,467.4
2022-11-25T22:59:47.711Z,473.2
2022-11-25T23:01:51.701Z,468.4
2022-11-25T23:03:55.520Z,462.5
2022-11-25T23:05:59.424Z,471
2022-11-25T23:08:03.324Z,464.3
2022-11-25T23:10:07.234Z,470.8
2022-11-25T23:12:11.159Z,471.5
2022-11-25T23:14:18.073Z,477.5
2022-11-25T23:16:22.024Z,480.7
2022-11-25T23:18:25.862Z,485.5
2022-11-25T23:20:29.774Z,484.3
2022-11-25T23:22:33.672Z,479.3
2022-11-25T23:24:37.794Z,468.9
2022-11-25T23:30:52.457Z,479.3
2022-11-25T23:32:56.211Z,484.4
2022-11-25T23:37:04.032Z,486.6
2022-11-25T23:41:11.822Z,486.5
2022-11-25T23:43:18.774Z,486.8
2022-11-25T23:45:22.674Z,481.7
2022-11-25T23:47:26.575Z,484.7
2022-11-25T23:48:30.002Z,484.9
2022-11-25T23:50:33.920Z,477.2
2022-11-25T23:52:37.814Z,496.6
2022-11-25T23:54:41.731Z,481.6
2022-11-25T23:56:48.648Z,495.8
2022-11-25T23:58:52.535Z,490
